Time,TemperatureF,DewpointF,PressureIn,WindDirection,WindDirectionDegrees,WindSpeedMPH,WindSpeedGustMPH,Humidity,HourlyPrecipIn,Conditions,Clouds,dailyrainin,SoftwareType,DateUTC
2013-12-07 00:00:00,76.1,67.6,30.18,ESE,117,3.0,3.0,75,0.00,,,0.00,Wunderground v.1.15,2013-12-07 05:00:00,
2013-12-07 00:09:00,76.1,67.6,30.18,ENE,72,2.0,3.0,75,0.00,,,0.00,Wunderground v.1.15,2013-12-07 05:09:00,
2013-12-07 00:20:00,76.1,67.6,30.18,ESE,109,3.0,3.0,75,0.00,,,0.00,Wunderground v.1.15,2013-12-07 05:20:00,
2013-12-07 00:30:00,76.2,67.7,30.18,ESE,105,3.0,3.0,75,0.00,,,0.00,Wunderground v.1.15,2013-12-07 05:30:00,
2013-12-07 00:40:00,76.4,67.9,30.18,SSE,166,3.0,4.0,75,0.00,,,0.00,Wunderground v.1.15,2013-12-07 05:40:00,
2013-12-07 00:50:00,76.3,67.8,30.18,ESE,104,3.0,3.0,75,0.00,,,0.00,Wunderground v.1.15,2013-12-07 05:50:00,
2013-12-07 00:59:00,76.4,68.3,30.18,SSE,150,3.0,3.0,76,0.00,,,0.00,Wunderground v.1.15,2013-12-07 05:59:00,
2013-12-07 01:10:00,76.4,68.3,30.18,SE,133,3.0,3.0,76,0.00,,,0.00,Wunderground v.1.15,2013-12-07 06:10:00,
2013-12-07 01:20:00,76.4,68.3,30.18,ESE,107,3.0,3.0,76,0.00,,,0.00,Wunderground v.1.15,2013-12-07 06:20:00,
2013-12-07 01:29:00,76.4,67.5,30.17,East,98,4.0,4.0,74,0.00,,,0.00,Wunderground v.1.15,2013-12-07 06:29:00,
2013-12-07 01:40:00,76.4,67.5,30.17,SSE,155,3.0,3.0,74,0.00,,,0.00,Wunderground v.1.15,2013-12-07 06:40:00,
2013-12-07 01:50:00,76.4,67.5,30.17,SE,129,2.0,4.0,74,0.00,,,0.00,Wunderground v.1.15,2013-12-07 06:50:00,
2013-12-07 01:59:00,76.3,67.4,30.17,ESE,119,2.0,3.0,74,0.00,,,0.00,Wunderground v.1.15,2013-12-07 06:59:00,
2013-12-07 02:10:00,76.4,67.1,30.17,SSE,158,3.0,5.0,73,0.00,,,0.00,Wunderground v.1.15,2013-12-07 07:10:00,
2013-12-07 02:20:00,76.1,66.8,30.17,ESE,108,2.0,2.0,73,0.00,,,0.00,Wunderground v.1.15,2013-12-07 07:20:00,
2013-12-07 02:29:00,76.1,66.8,30.17,ESE,107,3.0,3.0,73,0.00,,,0.00,Wunderground v.1.15,2013-12-07 07:29:00,
2013-12-07 02:40:00,75.8,66.9,30.17,SE,134,1.0,1.0,74,0.00,,,0.00,Wunderground v.1.15,2013-12-07 07:40:00,
2013-12-07 02:49:00,75.7,67.2,30.17,ESE,117,1.0,1.0,75,0.00,,,0.00,Wunderground v.1.15,2013-12-07 07:49:00,
2013-12-07 03:00:00,75.8,67.7,30.17,ESE,113,1.0,2.0,76,0.00,,,0.00,Wunderground v.1.15,2013-12-07 08:00:00,
2013-12-07 03:10:00,76.0,67.9,30.17,ESE,115,1.0,1.0,76,0.00,,,0.00,Wunderground v.1.15,2013-12-07 08:10:00,
2013-12-07 03:19:00,75.9,67.8,30.17,South,180,1.0,1.0,76,0.00,,,0.00,Wunderground v.1.15,2013-12-07 08:19:00,
2013-12-07 03:30:00,75.7,68.0,30.17,SE,129,1.0,1.0,77,0.00,,,0.00,Wunderground v.1.15,2013-12-07 08:30:00,
2013-12-07 03:40:00,75.5,67.8,30.17,SE,143,0.0,0.0,77,0.00,,,0.00,Wunderground v.1.15,2013-12-07 08:40:00,
2013-12-07 03:49:00,75.4,68.1,30.17,South,176,1.0,2.0,78,0.00,,,0.00,Wunderground v.1.15,2013-12-07 08:49:00,
2013-12-07 04:00:00,75.5,68.2,30.17,ESE,121,1.0,1.0,78,0.00,,,0.00,Wunderground v.1.15,2013-12-07 09:00:00,
2013-12-07 04:10:00,75.2,67.9,30.17,ESE,122,0.0,0.0,78,0.00,,,0.00,Wunderground v.1.15,2013-12-07 09:10:00,
2013-12-07 04:20:00,74.8,67.8,30.16,SE,127,1.0,1.0,79,0.00,,,0.00,Wunderground v.1.15,2013-12-07 09:20:00,
2013-12-07 04:30:00,74.5,67.9,30.16,SSE,163,0.0,0.0,80,0.00,,,0.00,Wunderground v.1.15,2013-12-07 09:30:00,
2013-12-07 04:40:00,74.0,67.8,30.16,SSW,195,0.0,0.0,81,0.00,,,0.00,Wunderground v.1.15,2013-12-07 09:40:00,
2013-12-07 04:50:00,72.7,66.9,30.16,WNW,295,1.0,1.0,82,0.00,,,0.00,Wunderground v.1.15,2013-12-07 09:50:00,
2013-12-07 05:00:00,71.7,66.6,30.16,WNW,293,0.0,1.0,84,0.00,,,0.00,Wunderground v.1.15,2013-12-07 10:00:00,
2013-12-07 05:10:00,71.0,66.6,30.16,WNW,294,0.0,0.0,86,0.00,,,0.00,Wunderground v.1.15,2013-12-07 10:10:00,
2013-12-07 05:20:00,70.5,66.1,30.16,WNW,293,0.0,0.0,86,0.00,,,0.00,Wunderground v.1.15,2013-12-07 10:20:00,
2013-12-07 05:30:00,70.1,66.0,30.16,WNW,297,0.0,0.0,87,0.00,,,0.00,Wunderground v.1.15,2013-12-07 10:30:00,
2013-12-07 05:39:00,69.8,66.1,30.17,WNW,298,0.0,0.0,88,0.00,,,0.00,Wunderground v.1.15,2013-12-07 10:39:00,
2013-12-07 05:50:00,69.6,65.9,30.17,WNW,298,0.0,0.0,88,0.00,,,0.00,Wunderground v.1.15,2013-12-07 10:50:00,
2013-12-07 06:00:00,69.6,65.9,30.17,WNW,297,0.0,0.0,88,0.00,,,0.00,Wunderground v.1.15,2013-12-07 11:00:00,
2013-12-07 06:10:00,69.6,65.9,30.18,WNW,297,0.0,0.0,88,0.00,,,0.00,Wunderground v.1.15,2013-12-07 11:10:00,
2013-12-07 06:20:00,69.7,66.0,30.18,WNW,297,0.0,0.0,88,0.00,,,0.00,Wunderground v.1.15,2013-12-07 11:20:00,
2013-12-07 06:30:00,69.8,66.4,30.19,WNW,298,0.0,0.0,89,0.00,,,0.00,Wunderground v.1.15,2013-12-07 11:30:00,
2013-12-07 06:40:00,69.9,66.5,30.19,NW,309,0.0,0.0,89,0.00,,,0.00,Wunderground v.1.15,2013-12-07 11:40:00,
2013-12-07 06:50:00,70.1,66.7,30.19,NW,319,0.0,0.0,89,0.00,,,0.00,Wunderground v.1.15,2013-12-07 11:50:00,
2013-12-07 07:00:00,70.3,66.9,30.19,NW,319,0.0,0.0,89,0.00,,,0.00,Wunderground v.1.15,2013-12-07 12:00:00,
2013-12-07 07:09:00,70.7,67.0,30.20,NNW,338,0.0,1.0,88,0.00,,,0.00,Wunderground v.1.15,2013-12-07 12:09:00,
2013-12-07 07:20:00,70.9,67.2,30.20,NNW,336,0.0,1.0,88,0.00,,,0.00,Wunderground v.1.15,2013-12-07 12:20:00,
2013-12-07 07:30:00,71.2,67.5,30.20,NW,316,1.0,1.0,88,0.00,,,0.00,Wunderground v.1.15,2013-12-07 12:30:00,
2013-12-07 07:39:00,71.5,67.8,30.20,NW,316,0.0,0.0,88,0.00,,,0.00,Wunderground v.1.15,2013-12-07 12:39:00,
2013-12-07 07:50:00,72.0,67.9,30.21,NW,316,0.0,0.0,87,0.00,,,0.00,Wunderground v.1.15,2013-12-07 12:50:00,
2013-12-07 08:00:00,72.4,68.0,30.21,WNW,288,0.0,0.0,86,0.00,,,0.00,Wunderground v.1.15,2013-12-07 13:00:00,
2013-12-07 08:10:00,73.1,68.7,30.21,West,278,1.0,2.0,86,0.00,,,0.00,Wunderground v.1.15,2013-12-07 13:10:00,
2013-12-07 08:20:00,74.0,69.2,30.21,West,281,1.0,1.0,85,0.00,,,0.00,Wunderground v.1.15,2013-12-07 13:20:00,
2013-12-07 08:29:00,77.2,71.3,30.21,SSE,147,2.0,2.0,82,0.00,,,0.00,Wunderground v.1.15,2013-12-07 13:29:00,
2013-12-07 08:40:00,79.1,70.1,30.21,SE,144,5.0,5.0,74,0.00,,,0.00,Wunderground v.1.15,2013-12-07 13:40:00,
2013-12-07 08:50:00,79.9,70.1,30.22,ENE,76,4.0,4.0,72,0.00,,,0.00,Wunderground v.1.15,2013-12-07 13:50:00,
2013-12-07 08:59:00,80.3,69.6,30.22,SE,138,3.0,4.0,70,0.00,,,0.00,Wunderground v.1.15,2013-12-07 13:59:00,
2013-12-07 09:10:00,79.3,69.5,30.23,SE,134,4.0,4.0,72,0.00,,,0.00,Wunderground v.1.15,2013-12-07 14:10:00,
2013-12-07 09:20:00,79.6,70.2,30.23,East,96,4.0,4.0,73,0.00,,,0.00,Wunderground v.1.15,2013-12-07 14:20:00,
2013-12-07 09:30:00,80.1,69.8,30.23,East,95,4.0,4.0,71,0.00,,,0.00,Wunderground v.1.15,2013-12-07 14:30:00,
2013-12-07 09:40:00,80.2,69.9,30.23,SE,136,4.0,4.0,71,0.00,,,0.00,Wunderground v.1.15,2013-12-07 14:40:00,
2013-12-07 09:49:00,80.2,69.5,30.23,SE,137,4.0,4.0,70,0.00,,,0.00,Wunderground v.1.15,2013-12-07 14:49:00,
2013-12-07 10:00:00,80.4,69.7,30.23,SSE,167,4.0,4.0,70,0.00,,,0.00,Wunderground v.1.15,2013-12-07 15:00:00,
2013-12-07 10:10:00,80.5,70.2,30.23,SE,136,4.0,4.0,71,0.00,,,0.00,Wunderground v.1.15,2013-12-07 15:10:00,
2013-12-07 10:19:00,80.9,69.8,30.23,SE,124,3.0,4.0,69,0.00,,,0.00,Wunderground v.1.15,2013-12-07 15:19:00,
2013-12-07 10:30:00,81.0,69.4,30.23,West,276,4.0,4.0,68,0.00,,,0.00,Wunderground v.1.15,2013-12-07 15:30:00,
2013-12-07 10:40:00,81.1,70.4,30.23,SSE,167,4.0,4.0,70,0.00,,,0.00,Wunderground v.1.15,2013-12-07 15:40:00,
2013-12-07 10:49:00,81.2,70.5,30.23,South,178,4.0,4.0,70,0.00,,,0.00,Wunderground v.1.15,2013-12-07 15:49:00,
2013-12-07 11:00:00,81.2,70.1,30.22,East,83,4.0,4.0,69,0.00,,,0.00,Wunderground v.1.15,2013-12-07 16:00:00,
2013-12-07 11:10:00,81.0,69.9,30.22,East,82,3.0,3.0,69,0.00,,,0.00,Wunderground v.1.15,2013-12-07 16:10:00,
2013-12-07 11:20:00,80.8,70.1,30.22,East,82,4.0,5.0,70,0.00,,,0.00,Wunderground v.1.15,2013-12-07 16:20:00,
2013-12-07 11:30:00,81.0,69.9,30.22,ESE,103,5.0,5.0,69,0.00,,,0.00,Wunderground v.1.15,2013-12-07 16:30:00,
2013-12-07 11:40:00,81.4,70.2,30.22,East,101,4.0,6.0,69,0.00,,,0.00,Wunderground v.1.15,2013-12-07 16:40:00,
2013-12-07 11:50:00,81.1,70.4,30.21,SE,142,4.0,5.0,70,0.00,,,0.00,Wunderground v.1.15,2013-12-07 16:50:00,
2013-12-07 12:00:00,81.1,70.0,30.21,ESE,105,4.0,6.0,69,0.00,,,0.00,Wunderground v.1.15,2013-12-07 17:00:00,
2013-12-07 12:10:00,81.5,70.8,30.20,SE,124,4.0,4.0,70,0.00,,,0.00,Wunderground v.1.15,2013-12-07 17:10:00,
2013-12-07 12:20:00,81.7,71.0,30.20,North,11,4.0,4.0,70,0.00,,,0.00,Wunderground v.1.15,2013-12-07 17:20:00,
2013-12-07 12:29:00,82.0,70.4,30.19,ESE,113,3.0,3.0,68,0.00,,,0.00,Wunderground v.1.15,2013-12-07 17:29:00,
2013-12-07 12:40:00,82.2,71.0,30.19,ESE,115,4.0,4.0,69,0.00,,,0.00,Wunderground v.1.15,2013-12-07 17:40:00,
2013-12-07 12:50:00,81.6,70.0,30.19,East,83,4.0,4.0,68,0.00,,,0.00,Wunderground v.1.15,2013-12-07 17:50:00,
2013-12-07 13:00:00,81.5,70.3,30.18,East,79,4.0,4.0,69,0.00,,,0.00,Wunderground v.1.15,2013-12-07 18:00:00,
2013-12-07 13:10:00,81.3,69.7,30.17,ESE,111,4.0,5.0,68,0.00,,,0.00,Wunderground v.1.15,2013-12-07 18:10:00,
2013-12-07 13:19:00,81.5,69.5,30.17,East,82,4.0,6.0,67,0.00,,,0.00,Wunderground v.1.15,2013-12-07 18:19:00,
2013-12-07 13:30:00,81.5,69.5,30.17,ESE,116,4.0,5.0,67,0.00,,,0.00,Wunderground v.1.15,2013-12-07 18:30:00,
2013-12-07 13:40:00,80.9,68.5,30.17,SE,143,4.0,4.0,66,0.00,,,0.00,Wunderground v.1.15,2013-12-07 18:40:00,
2013-12-07 13:49:00,81.4,70.2,30.16,ESE,105,4.0,4.0,69,0.00,,,0.00,Wunderground v.1.15,2013-12-07 18:49:00,
2013-12-07 14:00:00,81.4,69.4,30.16,East,96,4.0,5.0,67,0.00,,,0.00,Wunderground v.1.15,2013-12-07 19:00:00,
2013-12-07 14:10:00,81.5,68.1,30.16,ESE,106,4.0,4.0,64,0.00,,,0.00,Wunderground v.1.15,2013-12-07 19:10:00,
2013-12-07 14:19:00,81.3,68.4,30.15,SE,124,4.0,4.0,65,0.00,,,0.00,Wunderground v.1.15,2013-12-07 19:19:00,
2013-12-07 14:30:00,81.2,68.3,30.15,SSE,155,4.0,4.0,65,0.00,,,0.00,Wunderground v.1.15,2013-12-07 19:30:00,
2013-12-07 14:40:00,81.2,69.2,30.15,ESE,117,4.0,4.0,67,0.00,,,0.00,Wunderground v.1.15,2013-12-07 19:40:00,
2013-12-07 14:49:00,80.7,67.8,30.15,ESE,103,4.0,5.0,65,0.00,,,0.00,Wunderground v.1.15,2013-12-07 19:49:00,
2013-12-07 15:00:00,81.0,68.6,30.15,ESE,120,4.0,5.0,66,0.00,,,0.00,Wunderground v.1.15,2013-12-07 20:00:00,
2013-12-07 15:10:00,81.4,69.4,30.15,SE,127,3.0,6.0,67,0.00,,,0.00,Wunderground v.1.15,2013-12-07 20:10:00,
2013-12-07 15:19:00,81.0,69.4,30.15,SSE,166,3.0,3.0,68,0.00,,,0.00,Wunderground v.1.15,2013-12-07 20:19:00,
2013-12-07 15:30:00,81.2,69.2,30.15,East,99,3.0,3.0,67,0.00,,,0.00,Wunderground v.1.15,2013-12-07 20:30:00,
2013-12-07 15:40:00,81.2,69.2,30.15,SE,129,3.0,3.0,67,0.00,,,0.00,Wunderground v.1.15,2013-12-07 20:40:00,
2013-12-07 15:50:00,80.6,69.5,30.15,ESE,106,3.0,3.0,69,0.00,,,0.00,Wunderground v.1.15,2013-12-07 20:50:00,
2013-12-07 16:00:00,80.6,69.1,30.15,ESE,104,3.0,3.0,68,0.00,,,0.00,Wunderground v.1.15,2013-12-07 21:00:00,
2013-12-07 16:10:00,80.3,69.6,30.16,SE,141,3.0,4.0,70,0.00,,,0.00,Wunderground v.1.15,2013-12-07 21:10:00,
2013-12-07 16:20:00,80.4,69.7,30.16,ESE,115,3.0,4.0,70,0.00,,,0.00,Wunderground v.1.15,2013-12-07 21:20:00,
2013-12-07 16:30:00,80.0,70.2,30.16,East,95,3.0,6.0,72,0.00,,,0.00,Wunderground v.1.15,2013-12-07 21:30:00,
2013-12-07 16:40:00,79.1,70.5,30.16,NE,54,4.0,5.0,75,0.00,,,0.00,Wunderground v.1.15,2013-12-07 21:40:00,
2013-12-07 16:50:00,78.7,70.5,30.16,ENE,61,4.0,5.0,76,0.00,,,0.00,Wunderground v.1.15,2013-12-07 21:50:00,
2013-12-07 17:00:00,78.3,70.5,30.16,ENE,71,3.0,3.0,77,0.00,,,0.00,Wunderground v.1.15,2013-12-07 22:00:00,
2013-12-07 17:10:00,78.0,70.6,30.16,ENE,57,3.0,3.0,78,0.00,,,0.00,Wunderground v.1.15,2013-12-07 22:10:00,
2013-12-07 17:20:00,77.5,71.2,30.16,NE,42,5.0,5.0,81,0.00,,,0.00,Wunderground v.1.15,2013-12-07 22:20:00,
2013-12-07 17:30:00,76.4,71.2,30.16,NE,50,3.0,3.0,84,0.00,,,0.00,Wunderground v.1.15,2013-12-07 22:30:00,
2013-12-07 17:40:00,75.8,71.3,30.17,NE,37,2.0,2.0,86,0.00,,,0.00,Wunderground v.1.15,2013-12-07 22:40:00,
2013-12-07 17:50:00,75.5,71.0,30.17,NNW,340,2.0,5.0,86,0.00,,,0.00,Wunderground v.1.15,2013-12-07 22:50:00,
2013-12-07 18:00:00,75.3,71.2,30.17,NNE,28,3.0,3.0,87,0.00,,,0.00,Wunderground v.1.15,2013-12-07 23:00:00,
2013-12-07 18:10:00,75.0,70.9,30.17,NNE,20,3.0,6.0,87,0.00,,,0.00,Wunderground v.1.15,2013-12-07 23:10:00,
2013-12-07 18:20:00,74.7,70.6,30.17,ENE,76,3.0,3.0,87,0.00,,,0.00,Wunderground v.1.15,2013-12-07 23:20:00,
2013-12-07 18:30:00,74.5,70.4,30.17,NE,49,2.0,2.0,87,0.00,,,0.00,Wunderground v.1.15,2013-12-07 23:30:00,
2013-12-07 18:40:00,74.4,70.6,30.18,ENE,70,0.0,0.0,88,0.00,,,0.00,Wunderground v.1.15,2013-12-07 23:40:00,
2013-12-07 18:50:00,74.3,70.2,30.18,NNW,334,2.0,2.0,87,0.00,,,0.00,Wunderground v.1.15,2013-12-07 23:50:00,
2013-12-07 19:00:00,73.9,69.8,30.18,NE,49,3.0,3.0,87,0.00,,,0.00,Wunderground v.1.15,2013-12-08 00:00:00,
2013-12-07 19:09:00,73.6,69.8,30.18,North,9,2.0,4.0,88,0.00,,,0.00,Wunderground v.1.15,2013-12-08 00:09:00,
2013-12-07 19:20:00,73.7,69.9,30.18,North,11,1.0,2.0,88,0.00,,,0.00,Wunderground v.1.15,2013-12-08 00:20:00,
2013-12-07 19:30:00,73.5,69.7,30.18,NNW,332,1.0,1.0,88,0.00,,,0.00,Wunderground v.1.15,2013-12-08 00:30:00,
2013-12-07 19:39:00,73.4,69.6,30.18,East,83,0.0,1.0,88,0.00,,,0.00,Wunderground v.1.15,2013-12-08 00:39:00,
2013-12-07 19:50:00,75.1,69.6,30.18,ESE,107,3.0,3.0,83,0.00,,,0.00,Wunderground v.1.15,2013-12-08 00:50:00,
2013-12-07 20:00:00,76.1,69.1,30.18,East,97,3.0,3.0,79,0.00,,,0.00,Wunderground v.1.15,2013-12-08 01:00:00,
2013-12-07 20:10:00,76.6,69.2,30.18,ENE,76,4.0,4.0,78,0.00,,,0.00,Wunderground v.1.15,2013-12-08 01:10:00,
2013-12-07 20:20:00,76.7,69.3,30.18,ENE,77,3.0,7.0,78,0.00,,,0.00,Wunderground v.1.15,2013-12-08 01:20:00,
2013-12-07 20:30:00,76.8,69.4,30.18,East,96,4.0,4.0,78,0.00,,,0.00,Wunderground v.1.15,2013-12-08 01:30:00,
2013-12-07 20:40:00,76.9,69.5,30.19,East,96,3.0,3.0,78,0.00,,,0.00,Wunderground v.1.15,2013-12-08 01:40:00,
2013-12-07 20:50:00,77.1,70.1,30.19,East,88,3.0,3.0,79,0.00,,,0.00,Wunderground v.1.15,2013-12-08 01:50:00,
2013-12-07 21:00:00,77.4,70.4,30.19,ENE,63,4.0,6.0,79,0.00,,,0.00,Wunderground v.1.15,2013-12-08 02:00:00,
2013-12-07 21:10:00,77.3,69.9,30.19,NE,54,5.0,5.0,78,0.00,,,0.00,Wunderground v.1.15,2013-12-08 02:10:00,
2013-12-07 21:20:00,77.4,70.0,30.19,NE,56,5.0,13.0,78,0.00,,,0.00,Wunderground v.1.15,2013-12-08 02:20:00,
2013-12-07 21:30:00,77.5,69.7,30.19,ENE,63,6.0,6.0,77,0.00,,,0.00,Wunderground v.1.15,2013-12-08 02:30:00,
2013-12-07 21:40:00,77.5,70.1,30.19,ENE,72,6.0,8.0,78,0.00,,,0.00,Wunderground v.1.15,2013-12-08 02:40:00,
2013-12-07 21:49:00,77.6,70.6,30.19,NE,54,6.0,6.0,79,0.00,,,0.00,Wunderground v.1.15,2013-12-08 02:49:00,
2013-12-07 22:00:00,77.5,69.7,30.19,ESE,113,7.0,7.0,77,0.00,,,0.00,Wunderground v.1.15,2013-12-08 03:00:00,
2013-12-07 22:10:00,77.8,69.6,30.19,ENE,78,6.0,6.0,76,0.00,,,0.00,Wunderground v.1.15,2013-12-08 03:10:00,
2013-12-07 22:20:00,77.8,69.6,30.19,ENE,63,6.0,10.0,76,0.00,,,0.00,Wunderground v.1.15,2013-12-08 03:20:00,
2013-12-07 22:30:00,77.8,69.6,30.19,East,96,6.0,13.0,76,0.00,,,0.00,Wunderground v.1.15,2013-12-08 03:30:00,
2013-12-07 22:40:00,77.8,69.6,30.19,NE,44,6.0,6.0,76,0.00,,,0.00,Wunderground v.1.15,2013-12-08 03:40:00,
2013-12-07 22:50:00,77.8,70.0,30.19,East,96,5.0,5.0,77,0.00,,,0.00,Wunderground v.1.15,2013-12-08 03:50:00,
2013-12-07 23:00:00,77.9,70.9,30.19,ENE,72,6.0,8.0,79,0.00,,,0.00,Wunderground v.1.15,2013-12-08 04:00:00,
2013-12-07 23:10:00,77.4,70.7,30.19,East,86,7.0,12.0,80,0.00,,,0.00,Wunderground v.1.15,2013-12-08 04:10:00,
2013-12-07 23:20:00,77.4,70.4,30.19,ENE,70,7.0,7.0,79,0.00,,,0.00,Wunderground v.1.15,2013-12-08 04:20:00,
2013-12-07 23:30:00,77.5,70.1,30.19,East,89,8.0,13.0,78,0.00,,,0.00,Wunderground v.1.15,2013-12-08 04:30:00,
2013-12-07 23:40:00,77.5,70.5,30.19,ESE,118,8.0,8.0,79,0.00,,,0.00,Wunderground v.1.15,2013-12-08 04:40:00,
2013-12-07 23:50:00,77.4,70.4,30.19,East,101,7.0,8.0,79,0.00,,,0.00,Wunderground v.1.15,2013-12-08 04:50:00,